sensor_id;sensor_type;location;lat;lon;timestamp;temperature;humidity
24802;DHT22;12898;50.520;12.152;2023-08-06T00:00:20;14.70;99.90
24802;DHT22;12898;50.520;12.152;2023-08-06T00:02:46;14.70;99.90
24802;DHT22;12898;50.520;12.152;2023-08-06T00:05:11;14.80;99.90
24802;DHT22;12898;50.520;12.152;2023-08-06T00:07:37;14.80;99.90
24802;DHT22;12898;50.520;12.152;2023-08-06T00:10:03;14.80;99.90
24802;DHT22;12898;50.520;12.152;2023-08-06T00:12:29;14.80;99.90
24802;DHT22;12898;50.520;12.152;2023-08-06T00:14:55;14.80;99.90
24802;DHT22;12898;50.520;12.152;2023-08-06T00:17:20;14.80;99.90
24802;DHT22;12898;50.520;12.152;2023-08-06T00:19:46;14.80;99.90
24802;DHT22;12898;50.520;12.152;2023-08-06T00:22:12;14.80;99.90
24802;DHT22;12898;50.520;12.152;2023-08-06T00:24:37;14.80;99.90
24802;DHT22;12898;50.520;12.152;2023-08-06T00:27:03;14.80;99.90
24802;DHT22;12898;50.520;12.152;2023-08-06T00:29:29;14.80;99.90
24802;DHT22;12898;50.520;12.152;2023-08-06T00:31:55;14.80;99.90
24802;DHT22;12898;50.520;12.152;2023-08-06T00:34:20;14.80;99.90
24802;DHT22;12898;50.520;12.152;2023-08-06T00:36:46;14.80;99.90
24802;DHT22;12898;50.520;12.152;2023-08-06T00:39:12;14.80;99.90
24802;DHT22;12898;50.520;12.152;2023-08-06T00:41:37;14.80;99.90
24802;DHT22;12898;50.520;12.152;2023-08-06T00:44:03;14.80;99.90
24802;DHT22;12898;50.520;12.152;2023-08-06T00:46:29;14.80;99.90
24802;DHT22;12898;50.520;12.152;2023-08-06T00:48:55;14.90;99.90
24802;DHT22;12898;50.520;12.152;2023-08-06T00:51:22;14.80;99.90
24802;DHT22;12898;50.520;12.152;2023-08-06T00:53:49;14.80;99.90
24802;DHT22;12898;50.520;12.152;2023-08-06T00:56:15;14.80;99.90
24802;DHT22;12898;50.520;12.152;2023-08-06T00:58:41;14.80;99.90
24802;DHT22;12898;50.520;12.152;2023-08-06T01:01:07;14.80;99.90
24802;DHT22;12898;50.520;12.152;2023-08-06T01:03:33;14.80;99.90
24802;DHT22;12898;50.520;12.152;2023-08-06T01:05:59;14.80;99.90
24802;DHT22;12898;50.520;12.152;2023-08-06T01:11:38;14.80;99.90
24802;DHT22;12898;50.520;12.152;2023-08-06T01:14:30;14.70;99.90
24802;DHT22;12898;50.520;12.152;2023-08-06T01:16:58;14.70;99.90
24802;DHT22;12898;50.520;12.152;2023-08-06T01:19:24;14.70;99.90
24802;DHT22;12898;50.520;12.152;2023-08-06T01:21:50;14.70;99.90
24802;DHT22;12898;50.520;12.152;2023-08-06T01:24:15;14.70;99.90
24802;DHT22;12898;50.520;12.152;2023-08-06T01:26:48;14.70;99.90
24802;DHT22;12898;50.520;12.152;2023-08-06T01:29:30;14.70;99.90
24802;DHT22;12898;50.520;12.152;2023-08-06T01:31:59;14.60;99.90
24802;DHT22;12898;50.520;12.152;2023-08-06T01:34:29;14.60;99.90
24802;DHT22;12898;50.520;12.152;2023-08-06T01:36:57;14.60;99.90
24802;DHT22;12898;50.520;12.152;2023-08-06T01:39:24;14.50;99.90
24802;DHT22;12898;50.520;12.152;2023-08-06T01:41:50;14.50;99.90
24802;DHT22;12898;50.520;12.152;2023-08-06T01:44:16;14.40;99.90
24802;DHT22;12898;50.520;12.152;2023-08-06T01:46:42;14.40;99.90
24802;DHT22;12898;50.520;12.152;2023-08-06T01:49:08;14.40;99.90
24802;DHT22;12898;50.520;12.152;2023-08-06T01:51:33;14.30;99.90
24802;DHT22;12898;50.520;12.152;2023-08-06T01:53:59;14.30;99.90
24802;DHT22;12898;50.520;12.152;2023-08-06T01:56:25;14.30;99.90
24802;DHT22;12898;50.520;12.152;2023-08-06T01:58:50;14.20;99.90
24802;DHT22;12898;50.520;12.152;2023-08-06T02:01:16;14.20;99.90
24802;DHT22;12898;50.520;12.152;2023-08-06T02:03:42;14.20;99.90
24802;DHT22;12898;50.520;12.152;2023-08-06T02:06:07;14.20;99.90
24802;DHT22;12898;50.520;12.152;2023-08-06T02:08:33;14.20;99.90
24802;DHT22;12898;50.520;12.152;2023-08-06T02:10:58;14.20;99.90
24802;DHT22;12898;50.520;12.152;2023-08-06T02:13:24;14.20;99.90
24802;DHT22;12898;50.520;12.152;2023-08-06T02:15:50;14.20;99.90
24802;DHT22;12898;50.520;12.152;2023-08-06T02:18:16;14.30;99.90
24802;DHT22;12898;50.520;12.152;2023-08-06T02:20:42;14.30;99.90
24802;DHT22;12898;50.520;12.152;2023-08-06T02:23:08;14.30;99.90
24802;DHT22;12898;50.520;12.152;2023-08-06T02:25:34;14.30;99.90
24802;DHT22;12898;50.520;12.152;2023-08-06T02:28:00;14.30;99.90
24802;DHT22;12898;50.520;12.152;2023-08-06T02:30:26;14.30;99.90
24802;DHT22;12898;50.520;12.152;2023-08-06T02:32:52;14.30;99.90
24802;DHT22;12898;50.520;12.152;2023-08-06T02:35:17;14.30;99.90
24802;DHT22;12898;50.520;12.152;2023-08-06T02:37:43;14.30;99.90
24802;DHT22;12898;50.520;12.152;2023-08-06T02:40:09;14.30;99.90
24802;DHT22;12898;50.520;12.152;2023-08-06T02:42:35;14.40;99.90
24802;DHT22;12898;50.520;12.152;2023-08-06T02:45:00;14.30;99.90
24802;DHT22;12898;50.520;12.152;2023-08-06T02:47:26;14.30;99.90
24802;DHT22;12898;50.520;12.152;2023-08-06T02:49:52;14.30;99.90
24802;DHT22;12898;50.520;12.152;2023-08-06T02:52:17;14.30;99.90
24802;DHT22;12898;50.520;12.152;2023-08-06T02:54:43;14.30;99.90
24802;DHT22;12898;50.520;12.152;2023-08-06T02:57:09;14.30;99.90
24802;DHT22;12898;50.520;12.152;2023-08-06T02:59:35;14.30;99.90
24802;DHT22;12898;50.520;12.152;2023-08-06T03:02:00;14.30;99.90
24802;DHT22;12898;50.520;12.152;2023-08-06T03:04:26;14.30;99.90
24802;DHT22;12898;50.520;12.152;2023-08-06T03:06:52;14.20;99.90
24802;DHT22;12898;50.520;12.152;2023-08-06T03:09:18;14.20;99.90
24802;DHT22;12898;50.520;12.152;2023-08-06T03:11:43;14.20;99.90
24802;DHT22;12898;50.520;12.152;2023-08-06T03:14:09;14.10;99.90
24802;DHT22;12898;50.520;12.152;2023-08-06T03:16:35;14.10;99.90
24802;DHT22;12898;50.520;12.152;2023-08-06T03:19:00;14.10;99.90
24802;DHT22;12898;50.520;12.152;2023-08-06T03:21:26;14.00;99.90
24802;DHT22;12898;50.520;12.152;2023-08-06T03:23:52;14.00;99.90
24802;DHT22;12898;50.520;12.152;2023-08-06T03:26:18;14.00;99.90
24802;DHT22;12898;50.520;12.152;2023-08-06T03:28:43;13.90;99.90
24802;DHT22;12898;50.520;12.152;2023-08-06T03:31:09;13.90;99.90
24802;DHT22;12898;50.520;12.152;2023-08-06T03:33:35;13.80;99.90
24802;DHT22;12898;50.520;12.152;2023-08-06T03:36:01;13.80;99.90
24802;DHT22;12898;50.520;12.152;2023-08-06T03:38:27;13.80;99.90
24802;DHT22;12898;50.520;12.152;2023-08-06T03:40:53;13.80;99.90
24802;DHT22;12898;50.520;12.152;2023-08-06T03:43:19;13.70;99.90
24802;DHT22;12898;50.520;12.152;2023-08-06T03:45:44;13.70;99.90
24802;DHT22;12898;50.520;12.152;2023-08-06T03:48:10;13.70;99.90
24802;DHT22;12898;50.520;12.152;2023-08-06T03:50:36;13.60;99.90
24802;DHT22;12898;50.520;12.152;2023-08-06T03:53:02;13.60;99.90
24802;DHT22;12898;50.520;12.152;2023-08-06T03:55:27;13.60;99.90
24802;DHT22;12898;50.520;12.152;2023-08-06T03:57:53;13.60;99.90
24802;DHT22;12898;50.520;12.152;2023-08-06T04:00:19;13.60;99.90
24802;DHT22;12898;50.520;12.152;2023-08-06T04:02:44;13.60;99.90
24802;DHT22;12898;50.520;12.152;2023-08-06T04:05:10;13.60;99.90
24802;DHT22;12898;50.520;12.152;2023-08-06T04:07:36;13.60;99.90
24802;DHT22;12898;50.520;12.152;2023-08-06T04:10:03;13.50;99.90
24802;DHT22;12898;50.520;12.152;2023-08-06T04:12:30;13.60;99.90
24802;DHT22;12898;50.520;12.152;2023-08-06T04:14:57;13.50;99.90
24802;DHT22;12898;50.520;12.152;2023-08-06T04:17:24;13.50;99.90
24802;DHT22;12898;50.520;12.152;2023-08-06T04:19:54;13.60;99.90
24802;DHT22;12898;50.520;12.152;2023-08-06T04:22:21;13.60;99.90
24802;DHT22;12898;50.520;12.152;2023-08-06T04:24:47;13.50;99.90
24802;DHT22;12898;50.520;12.152;2023-08-06T04:27:14;13.50;99.90
24802;DHT22;12898;50.520;12.152;2023-08-06T04:29:40;13.50;99.90
24802;DHT22;12898;50.520;12.152;2023-08-06T04:32:08;13.60;99.90
24802;DHT22;12898;50.520;12.152;2023-08-06T04:34:36;13.60;99.90
24802;DHT22;12898;50.520;12.152;2023-08-06T04:37:02;13.60;99.90
24802;DHT22;12898;50.520;12.152;2023-08-06T04:39:29;13.60;99.90
24802;DHT22;12898;50.520;12.152;2023-08-06T04:41:56;13.60;99.90
24802;DHT22;12898;50.520;12.152;2023-08-06T04:44:23;13.70;99.90
24802;DHT22;12898;50.520;12.152;2023-08-06T04:46:48;13.70;99.90
24802;DHT22;12898;50.520;12.152;2023-08-06T04:49:14;13.70;99.90
24802;DHT22;12898;50.520;12.152;2023-08-06T04:51:40;13.70;99.90
24802;DHT22;12898;50.520;12.152;2023-08-06T04:54:05;13.70;99.90
24802;DHT22;12898;50.520;12.152;2023-08-06T04:56:31;13.70;99.90
24802;DHT22;12898;50.520;12.152;2023-08-06T04:58:58;13.80;99.90
24802;DHT22;12898;50.520;12.152;2023-08-06T05:01:24;13.80;99.90
24802;DHT22;12898;50.520;12.152;2023-08-06T05:03:50;13.80;99.90
24802;DHT22;12898;50.520;12.152;2023-08-06T05:06:16;13.80;99.90
24802;DHT22;12898;50.520;12.152;2023-08-06T05:08:41;13.80;99.90
24802;DHT22;12898;50.520;12.152;2023-08-06T05:11:07;13.80;99.90
24802;DHT22;12898;50.520;12.152;2023-08-06T05:13:33;13.80;99.90
24802;DHT22;12898;50.520;12.152;2023-08-06T05:15:58;13.80;99.90
24802;DHT22;12898;50.520;12.152;2023-08-06T05:18:24;13.90;99.90
24802;DHT22;12898;50.520;12.152;2023-08-06T05:20:49;13.90;99.90
24802;DHT22;12898;50.520;12.152;2023-08-06T05:23:15;13.90;99.90
24802;DHT22;12898;50.520;12.152;2023-08-06T05:25:42;13.90;99.90
24802;DHT22;12898;50.520;12.152;2023-08-06T05:28:07;13.90;99.90
24802;DHT22;12898;50.520;12.152;2023-08-06T05:30:33;13.90;99.90
24802;DHT22;12898;50.520;12.152;2023-08-06T05:32:59;13.90;99.90
24802;DHT22;12898;50.520;12.152;2023-08-06T05:35:24;13.90;99.90
24802;DHT22;12898;50.520;12.152;2023-08-06T05:37:50;13.90;99.90
24802;DHT22;12898;50.520;12.152;2023-08-06T05:40:16;13.90;99.90
24802;DHT22;12898;50.520;12.152;2023-08-06T05:42:42;13.90;99.90
24802;DHT22;12898;50.520;12.152;2023-08-06T05:45:08;13.90;99.90
24802;DHT22;12898;50.520;12.152;2023-08-06T05:47:35;14.00;99.90
24802;DHT22;12898;50.520;12.152;2023-08-06T05:50:00;14.00;99.90
24802;DHT22;12898;50.520;12.152;2023-08-06T05:52:26;14.00;99.90
24802;DHT22;12898;50.520;12.152;2023-08-06T05:54:52;14.10;99.90
24802;DHT22;12898;50.520;12.152;2023-08-06T05:57:17;14.20;99.90
24802;DHT22;12898;50.520;12.152;2023-08-06T05:59:43;14.20;99.90
24802;DHT22;12898;50.520;12.152;2023-08-06T06:02:09;14.20;99.90
24802;DHT22;12898;50.520;12.152;2023-08-06T06:04:35;14.30;99.90
24802;DHT22;12898;50.520;12.152;2023-08-06T06:07:01;14.30;99.90
24802;DHT22;12898;50.520;12.152;2023-08-06T06:09:26;14.30;99.90
24802;DHT22;12898;50.520;12.152;2023-08-06T06:11:52;14.30;99.90
24802;DHT22;12898;50.520;12.152;2023-08-06T06:14:18;14.30;99.90
24802;DHT22;12898;50.520;12.152;2023-08-06T06:16:44;14.40;99.90
24802;DHT22;12898;50.520;12.152;2023-08-06T06:19:10;14.40;99.90
24802;DHT22;12898;50.520;12.152;2023-08-06T06:21:36;14.40;99.90
24802;DHT22;12898;50.520;12.152;2023-08-06T06:24:03;14.50;99.90
24802;DHT22;12898;50.520;12.152;2023-08-06T06:26:30;14.50;99.90
24802;DHT22;12898;50.520;12.152;2023-08-06T06:28:56;14.60;99.90
24802;DHT22;12898;50.520;12.152;2023-08-06T06:31:22;14.60;99.90
24802;DHT22;12898;50.520;12.152;2023-08-06T06:33:47;14.60;99.90
24802;DHT22;12898;50.520;12.152;2023-08-06T06:36:13;14.60;99.90
24802;DHT22;12898;50.520;12.152;2023-08-06T06:38:39;14.60;99.90
24802;DHT22;12898;50.520;12.152;2023-08-06T06:41:05;14.60;99.90
24802;DHT22;12898;50.520;12.152;2023-08-06T06:43:30;14.70;99.90
24802;DHT22;12898;50.520;12.152;2023-08-06T06:45:57;14.80;99.90
24802;DHT22;12898;50.520;12.152;2023-08-06T06:48:25;14.90;99.90
24802;DHT22;12898;50.520;12.152;2023-08-06T06:50:52;14.90;99.90
24802;DHT22;12898;50.520;12.152;2023-08-06T06:53:17;15.00;99.90
24802;DHT22;12898;50.520;12.152;2023-08-06T06:55:43;15.10;99.90
24802;DHT22;12898;50.520;12.152;2023-08-06T06:58:09;15.20;99.90
24802;DHT22;12898;50.520;12.152;2023-08-06T07:00:38;15.30;99.90
24802;DHT22;12898;50.520;12.152;2023-08-06T07:03:04;15.40;99.90
24802;DHT22;12898;50.520;12.152;2023-08-06T07:05:29;15.40;99.90
24802;DHT22;12898;50.520;12.152;2023-08-06T07:07:55;15.50;99.90
24802;DHT22;12898;50.520;12.152;2023-08-06T07:10:20;15.50;99.90
24802;DHT22;12898;50.520;12.152;2023-08-06T07:12:46;15.50;99.90
24802;DHT22;12898;50.520;12.152;2023-08-06T07:15:12;15.40;99.90
24802;DHT22;12898;50.520;12.152;2023-08-06T07:17:38;15.50;99.90
24802;DHT22;12898;50.520;12.152;2023-08-06T07:20:04;15.50;99.90
24802;DHT22;12898;50.520;12.152;2023-08-06T07:22:31;15.50;99.90
24802;DHT22;12898;50.520;12.152;2023-08-06T07:24:57;15.50;99.90
24802;DHT22;12898;50.520;12.152;2023-08-06T07:27:23;15.40;99.90
24802;DHT22;12898;50.520;12.152;2023-08-06T07:29:50;15.30;99.90
24802;DHT22;12898;50.520;12.152;2023-08-06T07:32:15;15.20;99.90
24802;DHT22;12898;50.520;12.152;2023-08-06T07:34:41;15.10;99.90
24802;DHT22;12898;50.520;12.152;2023-08-06T07:37:07;15.10;99.90
24802;DHT22;12898;50.520;12.152;2023-08-06T07:39:32;15.10;99.90
24802;DHT22;12898;50.520;12.152;2023-08-06T07:41:58;15.10;99.90
24802;DHT22;12898;50.520;12.152;2023-08-06T07:44:24;15.10;99.90
24802;DHT22;12898;50.520;12.152;2023-08-06T07:46:50;15.20;99.90
24802;DHT22;12898;50.520;12.152;2023-08-06T07:49:15;15.20;99.90
24802;DHT22;12898;50.520;12.152;2023-08-06T07:51:41;15.30;99.90
24802;DHT22;12898;50.520;12.152;2023-08-06T07:54:07;15.30;99.90
24802;DHT22;12898;50.520;12.152;2023-08-06T07:56:33;15.30;99.90
24802;DHT22;12898;50.520;12.152;2023-08-06T07:58:58;15.40;99.90
24802;DHT22;12898;50.520;12.152;2023-08-06T08:01:24;15.40;99.90
24802;DHT22;12898;50.520;12.152;2023-08-06T08:03:50;15.40;99.90
24802;DHT22;12898;50.520;12.152;2023-08-06T08:06:15;15.30;99.90
24802;DHT22;12898;50.520;12.152;2023-08-06T08:08:44;15.30;99.90
24802;DHT22;12898;50.520;12.152;2023-08-06T08:11:10;15.50;99.90
24802;DHT22;12898;50.520;12.152;2023-08-06T08:13:36;15.50;99.90
24802;DHT22;12898;50.520;12.152;2023-08-06T08:16:02;15.60;99.90
24802;DHT22;12898;50.520;12.152;2023-08-06T08:18:28;15.70;99.90
24802;DHT22;12898;50.520;12.152;2023-08-06T08:20:53;15.70;99.90
24802;DHT22;12898;50.520;12.152;2023-08-06T08:23:19;15.70;99.90
24802;DHT22;12898;50.520;12.152;2023-08-06T08:25:45;15.80;99.90
24802;DHT22;12898;50.520;12.152;2023-08-06T08:28:10;15.90;99.90
24802;DHT22;12898;50.520;12.152;2023-08-06T08:30:36;15.90;99.90
24802;DHT22;12898;50.520;12.152;2023-08-06T08:33:01;16.00;99.90
24802;DHT22;12898;50.520;12.152;2023-08-06T08:35:27;16.00;99.90
24802;DHT22;12898;50.520;12.152;2023-08-06T08:37:53;16.10;99.90
24802;DHT22;12898;50.520;12.152;2023-08-06T08:40:20;16.20;99.90
24802;DHT22;12898;50.520;12.152;2023-08-06T08:42:48;16.20;99.90
24802;DHT22;12898;50.520;12.152;2023-08-06T08:45:14;16.30;99.90
24802;DHT22;12898;50.520;12.152;2023-08-06T08:47:41;16.40;99.90
24802;DHT22;12898;50.520;12.152;2023-08-06T08:50:08;16.40;99.90
24802;DHT22;12898;50.520;12.152;2023-08-06T08:52:36;16.40;99.90
24802;DHT22;12898;50.520;12.152;2023-08-06T08:55:04;16.50;99.90
24802;DHT22;12898;50.520;12.152;2023-08-06T08:57:30;16.80;99.90
24802;DHT22;12898;50.520;12.152;2023-08-06T08:59:56;17.00;99.90
24802;DHT22;12898;50.520;12.152;2023-08-06T09:02:23;17.20;99.90
24802;DHT22;12898;50.520;12.152;2023-08-06T09:04:51;17.30;99.90
24802;DHT22;12898;50.520;12.152;2023-08-06T09:07:20;17.40;99.90
24802;DHT22;12898;50.520;12.152;2023-08-06T09:09:48;17.50;99.90
24802;DHT22;12898;50.520;12.152;2023-08-06T09:12:16;17.60;99.90
24802;DHT22;12898;50.520;12.152;2023-08-06T09:14:42;17.60;99.90
24802;DHT22;12898;50.520;12.152;2023-08-06T09:17:09;17.70;99.90
24802;DHT22;12898;50.520;12.152;2023-08-06T09:19:41;17.90;99.90
24802;DHT22;12898;50.520;12.152;2023-08-06T09:22:12;18.10;99.90
24802;DHT22;12898;50.520;12.152;2023-08-06T09:24:42;18.10;99.90
24802;DHT22;12898;50.520;12.152;2023-08-06T09:27:12;18.20;99.90
24802;DHT22;12898;50.520;12.152;2023-08-06T09:29:45;18.30;99.90
24802;DHT22;12898;50.520;12.152;2023-08-06T09:32:14;18.40;99.90
24802;DHT22;12898;50.520;12.152;2023-08-06T09:34:42;18.60;99.90
24802;DHT22;12898;50.520;12.152;2023-08-06T09:37:11;18.50;99.90
24802;DHT22;12898;50.520;12.152;2023-08-06T09:39:38;18.50;99.90
24802;DHT22;12898;50.520;12.152;2023-08-06T09:42:05;18.50;99.90
24802;DHT22;12898;50.520;12.152;2023-08-06T09:44:33;18.60;99.90
24802;DHT22;12898;50.520;12.152;2023-08-06T09:47:03;18.70;99.90
24802;DHT22;12898;50.520;12.152;2023-08-06T09:51:58;19.10;99.90
24802;DHT22;12898;50.520;12.152;2023-08-06T09:54:26;19.20;99.90
24802;DHT22;12898;50.520;12.152;2023-08-06T09:56:56;19.40;99.90
24802;DHT22;12898;50.520;12.152;2023-08-06T09:59:25;19.60;99.90
24802;DHT22;12898;50.520;12.152;2023-08-06T10:01:53;19.60;99.90
24802;DHT22;12898;50.520;12.152;2023-08-06T10:04:20;19.70;99.90
24802;DHT22;12898;50.520;12.152;2023-08-06T10:06:47;19.70;99.90
24802;DHT22;12898;50.520;12.152;2023-08-06T10:09:13;19.80;99.90
24802;DHT22;12898;50.520;12.152;2023-08-06T10:11:40;19.90;99.90
24802;DHT22;12898;50.520;12.152;2023-08-06T10:14:11;20.10;99.90
24802;DHT22;12898;50.520;12.152;2023-08-06T10:16:40;20.30;99.90
24802;DHT22;12898;50.520;12.152;2023-08-06T10:19:09;20.60;99.90
24802;DHT22;12898;50.520;12.152;2023-08-06T10:21:37;20.80;99.90
24802;DHT22;12898;50.520;12.152;2023-08-06T10:24:07;20.80;99.90
24802;DHT22;12898;50.520;12.152;2023-08-06T10:26:36;21.00;99.90
24802;DHT22;12898;50.520;12.152;2023-08-06T10:29:37;21.20;99.90
24802;DHT22;12898;50.520;12.152;2023-08-06T10:32:03;21.70;99.90
24802;DHT22;12898;50.520;12.152;2023-08-06T10:34:57;22.30;99.90
24802;DHT22;12898;50.520;12.152;2023-08-06T10:37:34;22.50;99.90
24802;DHT22;12898;50.520;12.152;2023-08-06T10:40:03;22.80;98.10
24802;DHT22;12898;50.520;12.152;2023-08-06T10:42:33;22.70;95.40
24802;DHT22;12898;50.520;12.152;2023-08-06T10:45:17;22.10;98.10
24802;DHT22;12898;50.520;12.152;2023-08-06T10:47:44;21.70;99.80
24802;DHT22;12898;50.520;12.152;2023-08-06T10:50:12;21.30;99.90
24802;DHT22;12898;50.520;12.152;2023-08-06T10:52:39;21.00;99.90
24802;DHT22;12898;50.520;12.152;2023-08-06T10:55:06;21.30;99.90
24802;DHT22;12898;50.520;12.152;2023-08-06T10:57:32;21.60;99.90
24802;DHT22;12898;50.520;12.152;2023-08-06T10:59:57;21.70;99.90
24802;DHT22;12898;50.520;12.152;2023-08-06T11:02:23;21.80;95.60
24802;DHT22;12898;50.520;12.152;2023-08-06T11:04:49;22.10;99.90
24802;DHT22;12898;50.520;12.152;2023-08-06T11:07:14;22.70;95.80
24802;DHT22;12898;50.520;12.152;2023-08-06T11:09:40;23.60;95.20
24802;DHT22;12898;50.520;12.152;2023-08-06T11:12:12;24.00;88.30
24802;DHT22;12898;50.520;12.152;2023-08-06T11:14:50;23.90;89.20
24802;DHT22;12898;50.520;12.152;2023-08-06T11:17:16;24.10;86.70
24802;DHT22;12898;50.520;12.152;2023-08-06T11:19:41;24.30;80.20
24802;DHT22;12898;50.520;12.152;2023-08-06T11:22:07;24.10;73.20
24802;DHT22;12898;50.520;12.152;2023-08-06T11:24:33;23.90;75.40
24802;DHT22;12898;50.520;12.152;2023-08-06T11:26:58;23.90;74.70
24802;DHT22;12898;50.520;12.152;2023-08-06T11:29:24;23.80;81.10
24802;DHT22;12898;50.520;12.152;2023-08-06T11:31:49;23.90;73.80
24802;DHT22;12898;50.520;12.152;2023-08-06T11:34:15;23.60;78.40
24802;DHT22;12898;50.520;12.152;2023-08-06T11:36:42;23.50;80.50
24802;DHT22;12898;50.520;12.152;2023-08-06T11:39:08;23.10;83.10
24802;DHT22;12898;50.520;12.152;2023-08-06T11:41:36;22.90;81.70
24802;DHT22;12898;50.520;12.152;2023-08-06T11:44:03;22.70;83.80
24802;DHT22;12898;50.520;12.152;2023-08-06T11:46:29;22.40;80.70
24802;DHT22;12898;50.520;12.152;2023-08-06T11:49:14;22.50;87.60
24802;DHT22;12898;50.520;12.152;2023-08-06T11:51:40;22.90;85.00
24802;DHT22;12898;50.520;12.152;2023-08-06T11:54:06;23.20;78.10
24802;DHT22;12898;50.520;12.152;2023-08-06T11:56:32;23.10;83.40
24802;DHT22;12898;50.520;12.152;2023-08-06T11:58:58;22.90;81.90
24802;DHT22;12898;50.520;12.152;2023-08-06T12:01:23;22.70;84.90
24802;DHT22;12898;50.520;12.152;2023-08-06T12:03:50;23.00;78.40
24802;DHT22;12898;50.520;12.152;2023-08-06T12:06:15;23.50;83.00
24802;DHT22;12898;50.520;12.152;2023-08-06T12:08:41;23.60;75.30
24802;DHT22;12898;50.520;12.152;2023-08-06T12:11:07;23.10;76.70
24802;DHT22;12898;50.520;12.152;2023-08-06T12:13:34;22.80;80.30
24802;DHT22;12898;50.520;12.152;2023-08-06T12:15:59;22.80;80.90
24802;DHT22;12898;50.520;12.152;2023-08-06T12:18:25;22.80;81.70
24802;DHT22;12898;50.520;12.152;2023-08-06T12:20:51;22.50;84.30
24802;DHT22;12898;50.520;12.152;2023-08-06T12:23:16;22.30;90.90
24802;DHT22;12898;50.520;12.152;2023-08-06T12:25:42;22.10;90.80
24802;DHT22;12898;50.520;12.152;2023-08-06T12:28:10;22.40;94.80
24802;DHT22;12898;50.520;12.152;2023-08-06T12:30:36;22.90;92.80
24802;DHT22;12898;50.520;12.152;2023-08-06T12:33:01;23.40;83.90
24802;DHT22;12898;50.520;12.152;2023-08-06T12:35:27;23.60;82.00
24802;DHT22;12898;50.520;12.152;2023-08-06T12:37:53;23.90;81.00
24802;DHT22;12898;50.520;12.152;2023-08-06T12:40:20;24.10;76.80
24802;DHT22;12898;50.520;12.152;2023-08-06T12:42:46;24.40;75.90
24802;DHT22;12898;50.520;12.152;2023-08-06T12:45:12;24.10;70.80
24802;DHT22;12898;50.520;12.152;2023-08-06T12:47:37;23.50;75.30
24802;DHT22;12898;50.520;12.152;2023-08-06T12:50:03;22.90;79.30
24802;DHT22;12898;50.520;12.152;2023-08-06T12:52:29;22.80;82.60
24802;DHT22;12898;50.520;12.152;2023-08-06T12:54:55;23.00;77.00
24802;DHT22;12898;50.520;12.152;2023-08-06T12:57:20;23.40;76.90
24802;DHT22;12898;50.520;12.152;2023-08-06T12:59:46;23.60;72.70
24802;DHT22;12898;50.520;12.152;2023-08-06T13:02:12;23.50;72.20
24802;DHT22;12898;50.520;12.152;2023-08-06T13:04:37;23.70;72.90
24802;DHT22;12898;50.520;12.152;2023-08-06T13:07:03;23.80;71.20
24802;DHT22;12898;50.520;12.152;2023-08-06T13:09:31;23.90;70.70
24802;DHT22;12898;50.520;12.152;2023-08-06T13:11:58;24.40;72.80
24802;DHT22;12898;50.520;12.152;2023-08-06T13:14:25;24.70;72.40
24802;DHT22;12898;50.520;12.152;2023-08-06T13:16:51;24.70;70.30
24802;DHT22;12898;50.520;12.152;2023-08-06T13:19:16;24.10;70.30
24802;DHT22;12898;50.520;12.152;2023-08-06T13:24:15;22.80;75.70
24802;DHT22;12898;50.520;12.152;2023-08-06T13:26:41;22.50;81.50
24802;DHT22;12898;50.520;12.152;2023-08-06T13:29:06;22.70;84.00
24802;DHT22;12898;50.520;12.152;2023-08-06T13:31:32;22.70;86.40
24802;DHT22;12898;50.520;12.152;2023-08-06T13:33:58;22.70;84.10
24802;DHT22;12898;50.520;12.152;2023-08-06T13:36:25;22.90;84.40
24802;DHT22;12898;50.520;12.152;2023-08-06T13:38:51;23.30;85.70
24802;DHT22;12898;50.520;12.152;2023-08-06T13:41:17;23.40;79.60
24802;DHT22;12898;50.520;12.152;2023-08-06T13:43:43;23.20;74.70
24802;DHT22;12898;50.520;12.152;2023-08-06T13:46:11;23.10;75.90
24802;DHT22;12898;50.520;12.152;2023-08-06T13:48:42;22.90;73.90
24802;DHT22;12898;50.520;12.152;2023-08-06T13:51:11;22.70;77.40
24802;DHT22;12898;50.520;12.152;2023-08-06T13:53:38;22.70;79.40
24802;DHT22;12898;50.520;12.152;2023-08-06T13:56:05;23.00;80.30
24802;DHT22;12898;50.520;12.152;2023-08-06T13:58:32;23.40;78.50
24802;DHT22;12898;50.520;12.152;2023-08-06T14:00:58;23.60;78.60
24802;DHT22;12898;50.520;12.152;2023-08-06T14:03:24;24.00;77.40
24802;DHT22;12898;50.520;12.152;2023-08-06T14:05:49;23.80;76.80
24802;DHT22;12898;50.520;12.152;2023-08-06T14:08:15;23.60;75.90
24802;DHT22;12898;50.520;12.152;2023-08-06T14:10:44;23.20;79.80
24802;DHT22;12898;50.520;12.152;2023-08-06T14:13:10;22.90;81.90
24802;DHT22;12898;50.520;12.152;2023-08-06T14:15:36;22.80;90.60
24802;DHT22;12898;50.520;12.152;2023-08-06T14:18:02;22.80;88.50
24802;DHT22;12898;50.520;12.152;2023-08-06T14:20:28;22.90;84.70
24802;DHT22;12898;50.520;12.152;2023-08-06T14:22:54;22.40;90.10
24802;DHT22;12898;50.520;12.152;2023-08-06T14:25:19;22.30;91.80
24802;DHT22;12898;50.520;12.152;2023-08-06T14:27:45;21.90;93.00
24802;DHT22;12898;50.520;12.152;2023-08-06T14:30:11;21.60;94.30
24802;DHT22;12898;50.520;12.152;2023-08-06T14:32:37;21.70;95.90
24802;DHT22;12898;50.520;12.152;2023-08-06T14:35:02;22.00;94.70
24802;DHT22;12898;50.520;12.152;2023-08-06T14:37:28;22.10;92.50
24802;DHT22;12898;50.520;12.152;2023-08-06T14:39:54;22.50;92.60
24802;DHT22;12898;50.520;12.152;2023-08-06T14:42:20;22.90;90.00
24802;DHT22;12898;50.520;12.152;2023-08-06T14:44:45;23.00;81.70
24802;DHT22;12898;50.520;12.152;2023-08-06T14:47:11;22.60;78.60
24802;DHT22;12898;50.520;12.152;2023-08-06T14:49:37;22.50;83.10
24802;DHT22;12898;50.520;12.152;2023-08-06T14:52:04;22.40;81.10
24802;DHT22;12898;50.520;12.152;2023-08-06T14:54:30;22.20;78.00
24802;DHT22;12898;50.520;12.152;2023-08-06T14:56:56;22.30;78.70
24802;DHT22;12898;50.520;12.152;2023-08-06T14:59:22;22.20;80.30
24802;DHT22;12898;50.520;12.152;2023-08-06T15:01:48;21.80;82.20
24802;DHT22;12898;50.520;12.152;2023-08-06T15:04:13;21.20;88.40
24802;DHT22;12898;50.520;12.152;2023-08-06T15:06:39;20.70;91.90
24802;DHT22;12898;50.520;12.152;2023-08-06T15:09:05;20.40;93.30
24802;DHT22;12898;50.520;12.152;2023-08-06T15:11:30;20.40;95.70
24802;DHT22;12898;50.520;12.152;2023-08-06T15:13:56;20.80;96.40
24802;DHT22;12898;50.520;12.152;2023-08-06T15:16:22;21.20;95.80
24802;DHT22;12898;50.520;12.152;2023-08-06T15:18:47;21.50;94.60